createdAt,value
2019-02-14T00:00:41.958Z,49.18
2019-02-14T00:03:15.385Z,38.75
2019-02-14T00:05:48.526Z,35.45
2019-02-14T00:08:22.582Z,40.20
2019-02-14T00:10:56.589Z,36.85
2019-02-14T00:13:30.709Z,34.13
2019-02-14T00:16:04.752Z,37.30
2019-02-14T00:18:38.933Z,35.68
2019-02-14T00:21:12.639Z,35.50
2019-02-14T00:23:46.546Z,32.78
2019-02-14T00:26:20.283Z,34.05
2019-02-14T00:28:53.850Z,28.50
2019-02-14T00:31:27.867Z,33.02
2019-02-14T00:34:01.523Z,32.78
2019-02-14T00:36:35.258Z,36.58
2019-02-14T00:39:09.450Z,35.85
2019-02-14T00:41:43.583Z,33.63
2019-02-14T00:44:17.464Z,37.35
2019-02-14T00:46:51.403Z,38.73
2019-02-14T00:49:24.635Z,33.80
2019-02-14T00:51:58.093Z,32.38
2019-02-14T00:54:31.713Z,33.20
2019-02-14T00:57:04.901Z,30.92
2019-02-14T00:59:38.518Z,36.55
2019-02-14T01:02:12.621Z,33.65
2019-02-14T01:04:46.455Z,29.57
2019-02-14T01:07:21.259Z,29.72
2019-02-14T01:09:55.158Z,30.92
2019-02-14T01:12:28.884Z,28.80
2019-02-14T01:15:02.734Z,29.30
2019-02-14T01:17:36.208Z,30.27
2019-02-14T01:20:09.165Z,33.75
2019-02-14T01:22:43.195Z,32.28
2019-02-14T01:25:16.880Z,32.58
2019-02-14T01:27:50.995Z,32.45
2019-02-14T01:30:24.798Z,30.70
2019-02-14T01:32:58.832Z,33.35
2019-02-14T01:35:32.677Z,37.15
2019-02-14T01:38:06.316Z,30.05
2019-02-14T01:40:40.437Z,32.53
2019-02-14T01:43:14.466Z,36.88
2019-02-14T01:45:48.279Z,35.48
2019-02-14T01:48:21.826Z,34.20
2019-02-14T01:50:56.267Z,37.53
2019-02-14T01:53:30.725Z,35.68
2019-02-14T01:56:04.676Z,30.88
2019-02-14T01:58:38.288Z,33.08
2019-02-14T02:01:12.316Z,32.48
2019-02-14T02:03:46.533Z,31.57
2019-02-14T02:06:20.090Z,33.30
2019-02-14T02:08:53.224Z,31.42
2019-02-14T02:11:27.362Z,32.15
2019-02-14T02:14:01.127Z,29.57
2019-02-14T02:16:34.802Z,29.37
2019-02-14T02:19:08.746Z,27.20
2019-02-14T02:21:42.423Z,31.65
2019-02-14T02:24:15.743Z,27.40
2019-02-14T02:26:49.847Z,29.37
2019-02-14T02:29:23.860Z,35.38
2019-02-14T02:31:56.970Z,28.45
2019-02-14T02:34:31.190Z,32.75
2019-02-14T02:37:05.508Z,31.37
2019-02-14T02:39:39.158Z,29.50
2019-02-14T02:42:12.807Z,30.65
2019-02-14T02:44:46.823Z,29.48
2019-02-14T02:47:20.820Z,31.15
2019-02-14T02:49:54.053Z,33.45
2019-02-14T02:52:28.120Z,30.55
2019-02-14T02:55:01.720Z,27.35
2019-02-14T02:57:35.681Z,29.95
2019-02-14T03:00:13.553Z,26.55
2019-02-14T03:02:46.862Z,26.48
2019-02-14T03:05:20.552Z,27.27
2019-02-14T03:07:55.073Z,24.05
2019-02-14T03:10:29.213Z,27.15
2019-02-14T03:13:02.684Z,26.52
2019-02-14T03:15:35.857Z,25.82
2019-02-14T03:18:09.760Z,26.33
2019-02-14T03:20:42.558Z,25.30
2019-02-14T03:23:16.708Z,25.23
2019-02-14T03:25:50.800Z,22.35
2019-02-14T03:28:24.372Z,26.77
2019-02-14T03:30:58.536Z,25.55
2019-02-14T03:33:32.304Z,24.60
2019-02-14T03:36:06.023Z,25.40
2019-02-14T03:38:39.239Z,21.57
2019-02-14T03:41:12.817Z,26.33
2019-02-14T03:43:46.285Z,25.90
2019-02-14T03:46:20.527Z,24.90
2019-02-14T03:48:53.743Z,24.27
2019-02-14T03:51:27.421Z,26.30
2019-02-14T03:54:01.217Z,25.62
2019-02-14T03:56:35.036Z,24.47
2019-02-14T03:59:09.088Z,23.50
2019-02-14T04:01:43.146Z,27.13
2019-02-14T04:04:16.772Z,25.52
2019-02-14T04:06:50.575Z,25.62
2019-02-14T04:09:24.342Z,26.97
2019-02-14T04:11:57.978Z,27.25
2019-02-14T04:14:32.102Z,29.05
2019-02-14T04:17:05.271Z,29.12
2019-02-14T04:19:39.298Z,30.70
2019-02-14T04:22:13.784Z,28.80
2019-02-14T04:24:47.835Z,31.23
2019-02-14T04:27:21.603Z,28.27
2019-02-14T04:29:55.339Z,28.85
2019-02-14T04:32:28.336Z,29.50
2019-02-14T04:35:01.948Z,25.27
2019-02-14T04:37:35.570Z,27.70
2019-02-14T04:40:09.977Z,27.27
2019-02-14T04:42:43.203Z,27.10
2019-02-14T04:45:16.853Z,30.40
2019-02-14T04:47:50.969Z,28.07
2019-02-14T04:50:24.811Z,29.98
2019-02-14T04:52:57.899Z,30.25
2019-02-14T04:55:32.213Z,25.97
2019-02-14T04:58:05.459Z,27.73
2019-02-14T05:00:39.569Z,30.60
2019-02-14T05:03:13.124Z,27.98
2019-02-14T05:05:47.317Z,33.95
2019-02-14T05:08:21.344Z,29.90
2019-02-14T05:10:55.152Z,29.87
2019-02-14T05:13:28.887Z,28.27
2019-02-14T05:16:02.743Z,28.15
2019-02-14T05:18:36.269Z,25.97
2019-02-14T05:21:10.287Z,27.55
2019-02-14T05:23:43.796Z,28.17
2019-02-14T05:26:17.623Z,31.07
2019-02-14T05:28:51.149Z,32.17
2019-02-14T05:31:24.695Z,31.10
2019-02-14T05:33:58.762Z,26.30
2019-02-14T05:36:32.843Z,26.70
2019-02-14T05:39:06.260Z,33.02
2019-02-14T05:41:40.532Z,31.85
2019-02-14T05:44:13.898Z,27.95
2019-02-14T05:46:47.150Z,31.10
2019-02-14T05:49:21.195Z,26.70
2019-02-14T05:51:55.431Z,27.82
2019-02-14T05:54:37.420Z,26.30
2019-02-14T05:57:11.519Z,25.02
2019-02-14T05:59:45.673Z,28.30
2019-02-14T06:02:20.015Z,24.25
2019-02-14T06:04:53.641Z,26.02
2019-02-14T06:07:28.076Z,27.05
2019-02-14T06:10:02.155Z,27.45
2019-02-14T06:12:36.432Z,28.42
2019-02-14T06:15:09.825Z,25.25
2019-02-14T06:17:43.529Z,27.27
2019-02-14T06:20:16.307Z,26.90
2019-02-14T06:22:49.873Z,25.90
2019-02-14T06:25:24.008Z,26.10
2019-02-14T06:27:58.007Z,25.80
2019-02-14T06:30:31.946Z,26.95
2019-02-14T06:33:05.620Z,26.95
2019-02-14T06:35:39.506Z,28.23
2019-02-14T06:38:13.332Z,31.40
2019-02-14T06:40:47.314Z,30.72
2019-02-14T06:43:20.763Z,30.70
2019-02-14T06:45:54.340Z,26.97
2019-02-14T06:48:27.322Z,30.77
2019-02-14T06:51:01.339Z,38.10
2019-02-14T06:53:34.869Z,32.35
2019-02-14T06:56:09.047Z,37.78
2019-02-14T06:58:43.123Z,33.80
2019-02-14T07:01:16.977Z,37.90
2019-02-14T07:03:50.912Z,32.40
2019-02-14T07:06:24.619Z,34.03
2019-02-14T07:08:58.770Z,31.02
2019-02-14T07:11:32.720Z,32.33
2019-02-14T07:14:06.478Z,36.33
2019-02-14T07:16:40.225Z,33.55
2019-02-14T07:19:13.369Z,31.42
2019-02-14T07:21:47.245Z,32.13
2019-02-14T07:24:20.630Z,34.40
2019-02-14T07:26:54.580Z,34.88
2019-02-14T07:29:27.707Z,31.23
2019-02-14T07:32:01.392Z,30.57
2019-02-14T07:34:35.096Z,32.40
2019-02-14T07:37:08.816Z,31.60
2019-02-14T07:39:43.042Z,28.70
2019-02-14T07:42:17.180Z,26.50
2019-02-14T07:44:51.388Z,28.30
2019-02-14T07:47:25.129Z,23.18
2019-02-14T07:49:59.308Z,25.65
2019-02-14T07:52:33.018Z,25.70
2019-02-14T07:55:06.177Z,23.38
2019-02-14T07:57:40.167Z,24.18
2019-02-14T08:00:15.011Z,21.82
2019-02-14T08:02:47.869Z,25.37
2019-02-14T08:05:21.131Z,22.75
2019-02-14T08:07:55.216Z,23.62
2019-02-14T08:10:28.916Z,24.50
2019-02-14T08:13:04.241Z,27.02
2019-02-14T08:15:40.015Z,25.85
2019-02-14T08:18:14.198Z,25.20
2019-02-14T08:20:48.919Z,24.37
2019-02-14T08:23:22.961Z,25.82
2019-02-14T08:25:57.325Z,25.55
2019-02-14T08:28:32.309Z,25.12
2019-02-14T08:31:07.352Z,25.95
2019-02-14T08:33:41.702Z,25.72
2019-02-14T08:36:17.516Z,25.17
2019-02-14T08:38:53.016Z,23.45
2019-02-14T08:41:27.735Z,24.00
2019-02-14T08:44:02.995Z,23.20
2019-02-14T08:46:36.846Z,22.67
2019-02-14T08:49:11.516Z,23.87
2019-02-14T08:51:51.206Z,26.52
2019-02-14T08:54:33.308Z,25.40
2019-02-14T08:57:15.705Z,21.30
2019-02-14T08:59:50.000Z,22.15
2019-02-14T09:02:25.861Z,24.85
2019-02-14T09:05:00.300Z,26.85
2019-02-14T09:07:35.991Z,28.47
2019-02-14T09:10:11.832Z,28.10
2019-02-14T09:12:46.758Z,29.30
2019-02-14T09:15:21.379Z,26.60
2019-02-14T09:17:56.292Z,25.20
2019-02-14T09:20:32.050Z,25.30
2019-02-14T09:23:07.373Z,29.35
2019-02-14T09:25:43.134Z,26.42
2019-02-14T09:28:18.345Z,22.62
2019-02-14T09:30:53.825Z,23.62
2019-02-14T09:33:28.961Z,23.95
2019-02-14T09:36:03.208Z,21.00
2019-02-14T09:38:39.798Z,22.25
2019-02-14T09:41:14.456Z,22.73
2019-02-14T09:43:49.642Z,21.17
2019-02-14T09:46:24.780Z,23.65
2019-02-14T09:49:00.468Z,25.85
2019-02-14T09:51:34.753Z,23.70
2019-02-14T09:54:10.360Z,29.80
2019-02-14T09:56:45.731Z,25.23
2019-02-14T09:59:21.398Z,25.95
2019-02-14T10:01:56.524Z,30.43
2019-02-14T10:04:32.000Z,29.07
2019-02-14T10:07:06.798Z,29.32
2019-02-14T10:09:42.289Z,29.25
2019-02-14T10:12:17.406Z,28.30
2019-02-14T10:14:55.179Z,31.20
2019-02-14T10:17:30.904Z,25.48
2019-02-14T10:20:06.041Z,23.57
2019-02-14T10:22:41.205Z,22.60
2019-02-14T10:25:17.490Z,24.92
2019-02-14T10:27:52.404Z,23.80
2019-02-14T10:30:27.515Z,24.05
2019-02-14T10:33:02.890Z,22.15
2019-02-14T10:35:40.721Z,23.73
2019-02-14T10:38:22.252Z,26.10
2019-02-14T10:40:54.005Z,25.00
2019-02-14T10:43:29.671Z,26.45
2019-02-14T10:46:05.409Z,23.85
2019-02-14T10:48:40.544Z,24.98
2019-02-14T10:51:16.296Z,25.55
2019-02-14T10:53:51.988Z,23.77
2019-02-14T10:56:27.326Z,23.20
2019-02-14T10:59:04.064Z,24.47
2019-02-14T11:01:39.375Z,24.37
2019-02-14T11:04:14.346Z,25.15
2019-02-14T11:06:49.595Z,26.27
2019-02-14T11:09:25.383Z,25.75
2019-02-14T11:12:00.688Z,23.45
2019-02-14T11:14:36.125Z,24.27
2019-02-14T11:17:11.673Z,25.90
2019-02-14T11:19:46.790Z,26.95
2019-02-14T11:22:22.221Z,25.30
2019-02-14T11:24:56.550Z,25.88
2019-02-14T11:27:33.637Z,28.77
2019-02-14T11:30:08.999Z,28.87
2019-02-14T11:32:44.148Z,26.48
2019-02-14T11:35:17.629Z,26.95
2019-02-14T11:37:54.563Z,28.73
2019-02-14T11:40:31.342Z,28.90
2019-02-14T11:43:05.465Z,30.62
2019-02-14T11:45:42.016Z,26.37
2019-02-14T11:48:16.692Z,30.32
2019-02-14T11:50:52.063Z,28.10
2019-02-14T11:53:26.217Z,31.07
2019-02-14T11:56:00.770Z,30.48
2019-02-14T11:58:37.144Z,28.52
2019-02-14T12:01:11.787Z,29.00
2019-02-14T12:03:45.748Z,27.90
2019-02-14T12:06:19.851Z,25.62
2019-02-14T12:09:00.090Z,25.25
2019-02-14T12:11:29.301Z,27.42
2019-02-14T12:14:03.071Z,27.93
2019-02-14T12:16:36.935Z,27.42
2019-02-14T12:19:11.138Z,28.25
2019-02-14T12:21:45.284Z,25.60
2019-02-14T12:24:19.095Z,27.93
2019-02-14T12:26:53.375Z,31.73
2019-02-14T12:29:26.980Z,27.87
2019-02-14T12:32:00.680Z,29.10
2019-02-14T12:34:34.489Z,26.00
2019-02-14T12:37:08.584Z,25.30
2019-02-14T12:39:42.465Z,25.72
2019-02-14T12:42:16.913Z,29.63
2019-02-14T12:44:51.338Z,31.27
2019-02-14T12:47:27.643Z,26.65
2019-02-14T12:50:01.986Z,31.12
2019-02-14T12:52:36.892Z,27.00
2019-02-14T12:55:12.707Z,27.85
2019-02-14T12:57:48.160Z,28.20
2019-02-14T13:00:25.675Z,30.57
2019-02-14T13:03:00.537Z,31.68
2019-02-14T13:05:35.565Z,35.20
2019-02-14T13:08:11.854Z,28.40
2019-02-14T13:10:48.162Z,32.50
2019-02-14T13:13:22.514Z,35.75
2019-02-14T13:15:57.566Z,36.35
2019-02-14T13:18:33.080Z,34.23
2019-02-14T13:21:08.362Z,33.28
2019-02-14T13:23:42.869Z,35.33
2019-02-14T13:26:16.682Z,39.83
2019-02-14T13:28:49.456Z,33.23
2019-02-14T13:31:31.731Z,38.85
2019-02-14T13:34:03.051Z,37.13
2019-02-14T13:36:37.716Z,42.65
2019-02-14T13:39:13.714Z,40.33
2019-02-14T13:41:49.509Z,41.73
2019-02-14T13:44:24.533Z,42.65
2019-02-14T13:47:00.240Z,43.33
2019-02-14T13:49:35.983Z,46.83
2019-02-14T13:52:12.259Z,42.70
2019-02-14T13:54:47.311Z,43.73
2019-02-14T13:57:23.019Z,42.65
2019-02-14T13:59:57.952Z,44.90
2019-02-14T14:02:33.751Z,44.38
2019-02-14T14:05:08.599Z,45.50
2019-02-14T14:07:44.696Z,46.08
2019-02-14T14:10:21.858Z,52.50
2019-02-14T14:12:57.868Z,55.00
2019-02-14T14:15:43.063Z,50.28
2019-02-14T14:18:20.992Z,50.80
2019-02-14T14:20:57.019Z,48.42
2019-02-14T14:23:33.810Z,45.60
2019-02-14T14:26:09.033Z,49.48
2019-02-14T14:28:44.463Z,43.73
2019-02-14T14:31:18.806Z,43.75
2019-02-14T14:33:54.016Z,47.45
2019-02-14T14:36:31.017Z,44.98
2019-02-14T14:39:06.917Z,44.65
2019-02-14T14:41:41.581Z,49.10
2019-02-14T14:44:32.053Z,48.70
2019-02-14T14:47:13.676Z,48.13
2019-02-14T14:49:49.010Z,51.40
2019-02-14T14:52:24.942Z,50.33
2019-02-14T14:55:00.935Z,52.80
2019-02-14T14:57:35.341Z,50.52
2019-02-14T15:00:11.198Z,48.80
2019-02-14T15:02:47.269Z,47.45
2019-02-14T15:05:23.543Z,53.55
2019-02-14T15:08:00.795Z,54.93
2019-02-14T15:10:39.412Z,51.40
2019-02-14T15:13:14.637Z,48.92
2019-02-14T15:15:49.745Z,50.08
2019-02-14T15:18:24.148Z,53.30
2019-02-14T15:20:58.581Z,49.20
2019-02-14T15:23:33.325Z,47.30
2019-02-14T15:26:08.152Z,59.73
2019-02-14T15:28:43.090Z,53.60
2019-02-14T15:31:17.799Z,56.50
2019-02-14T15:33:53.122Z,60.03
2019-02-14T15:36:28.774Z,53.05
2019-02-14T15:39:03.794Z,52.65
2019-02-14T15:41:38.113Z,53.05
2019-02-14T15:44:12.722Z,44.88
2019-02-14T15:46:48.600Z,50.85
2019-02-14T15:49:25.389Z,49.88
2019-02-14T15:52:03.210Z,50.43
2019-02-14T15:54:37.811Z,47.20
2019-02-14T15:57:12.190Z,46.60
2019-02-14T15:59:46.441Z,45.98
2019-02-14T16:02:20.932Z,46.30
2019-02-14T16:04:57.149Z,46.08
2019-02-14T16:07:32.019Z,43.25
2019-02-14T16:10:07.550Z,44.10
2019-02-14T16:12:43.980Z,41.20
2019-02-14T16:15:18.451Z,38.80
2019-02-14T16:17:54.101Z,39.92
2019-02-14T16:20:29.635Z,39.50
2019-02-14T16:23:08.053Z,37.38
2019-02-14T16:25:43.388Z,42.25
2019-02-14T16:28:19.481Z,40.43
2019-02-14T16:30:56.818Z,42.50
2019-02-14T16:33:32.683Z,41.00
2019-02-14T16:36:07.654Z,39.65
2019-02-14T16:38:42.049Z,39.33
2019-02-14T16:41:16.531Z,36.10
2019-02-14T16:43:52.168Z,38.08
2019-02-14T16:46:28.076Z,39.13
2019-02-14T16:49:03.234Z,38.10
2019-02-14T16:51:38.216Z,38.85
2019-02-14T16:54:12.129Z,37.63
2019-02-14T16:56:46.415Z,36.85
2019-02-14T16:59:20.795Z,36.33
2019-02-14T17:01:57.602Z,41.80
2019-02-14T17:04:33.001Z,39.60
2019-02-14T17:07:08.804Z,38.08
2019-02-14T17:09:44.459Z,38.63
2019-02-14T17:12:18.894Z,35.88
2019-02-14T17:14:52.837Z,35.33
2019-02-14T17:17:27.984Z,34.60
2019-02-14T17:20:03.056Z,35.25
2019-02-14T17:22:37.438Z,35.92
2019-02-14T17:25:12.577Z,35.88
2019-02-14T17:27:46.842Z,32.95
2019-02-14T17:30:21.432Z,38.30
2019-02-14T17:32:56.681Z,37.70
2019-02-14T17:35:31.565Z,37.90
2019-02-14T17:38:05.793Z,35.43
2019-02-14T17:40:45.866Z,39.38
2019-02-14T17:43:15.750Z,35.10
2019-02-14T17:45:50.523Z,34.60
2019-02-14T17:48:26.635Z,36.75
2019-02-14T17:51:00.970Z,37.48
2019-02-14T17:53:35.856Z,36.15
2019-02-14T17:56:11.634Z,40.10
2019-02-14T17:58:47.269Z,37.35
2019-02-14T18:01:21.642Z,38.05
2019-02-14T18:03:56.498Z,40.17
2019-02-14T18:06:30.589Z,35.35
2019-02-14T18:09:05.733Z,39.05
2019-02-14T18:11:39.514Z,41.25
2019-02-14T18:14:12.775Z,40.50
2019-02-14T18:16:47.061Z,34.88
2019-02-14T18:19:21.006Z,40.23
2019-02-14T18:21:55.256Z,38.53
2019-02-14T18:24:29.782Z,33.98
2019-02-14T18:27:04.315Z,35.48
2019-02-14T18:29:38.476Z,37.55
2019-02-14T18:32:11.378Z,33.55
2019-02-14T18:34:46.977Z,39.25
2019-02-14T18:37:19.941Z,35.17
2019-02-14T18:39:53.775Z,39.13
2019-02-14T18:42:27.142Z,36.55
2019-02-14T18:45:00.695Z,36.25
2019-02-14T18:47:39.747Z,36.40
2019-02-14T18:50:10.519Z,36.20
2019-02-14T18:52:43.492Z,37.48
2019-02-14T18:55:18.230Z,36.42
2019-02-14T18:57:50.718Z,38.60
2019-02-14T19:00:25.528Z,35.68
2019-02-14T19:02:58.560Z,41.75
2019-02-14T19:05:32.586Z,36.17
2019-02-14T19:08:05.019Z,38.98
2019-02-14T19:10:39.734Z,40.30
2019-02-14T19:13:13.449Z,39.95
2019-02-14T19:15:47.394Z,37.78
2019-02-14T19:18:21.924Z,37.83
2019-02-14T19:20:55.526Z,40.63
2019-02-14T19:23:28.489Z,40.67
2019-02-14T19:26:03.637Z,45.30
2019-02-14T19:28:36.911Z,39.45
2019-02-14T19:31:10.207Z,41.80
2019-02-14T19:33:42.944Z,44.73
2019-02-14T19:36:18.277Z,42.10
2019-02-14T19:38:51.178Z,42.08
2019-02-14T19:41:25.568Z,46.77
2019-02-14T19:43:58.293Z,46.30
2019-02-14T19:46:31.307Z,42.55
2019-02-14T19:49:05.107Z,44.60
2019-02-14T19:51:37.630Z,42.13
2019-02-14T19:54:11.396Z,44.65
2019-02-14T19:56:44.319Z,40.88
2019-02-14T19:59:17.779Z,40.00
2019-02-14T20:01:50.415Z,36.65
2019-02-14T20:04:24.015Z,33.95
2019-02-14T20:06:57.577Z,36.65
2019-02-14T20:09:36.778Z,38.80
2019-02-14T20:12:12.519Z,35.15
2019-02-14T20:14:46.433Z,40.28
2019-02-14T20:17:21.555Z,42.58
2019-02-14T20:19:54.497Z,37.45
2019-02-14T20:22:28.235Z,35.50
2019-02-14T20:25:01.192Z,34.03
2019-02-14T20:27:34.152Z,33.10
2019-02-14T20:30:07.430Z,25.25
2019-02-14T20:32:40.334Z,27.37
2019-02-14T20:35:12.559Z,30.32
2019-02-14T20:37:45.496Z,26.82
2019-02-14T20:40:19.428Z,28.12
2019-02-14T20:42:52.749Z,27.77
2019-02-14T20:45:26.607Z,26.95
2019-02-14T20:48:01.059Z,25.48
2019-02-14T20:50:33.851Z,29.63
2019-02-14T20:53:06.342Z,30.15
2019-02-14T20:55:40.579Z,32.95
2019-02-14T20:58:13.079Z,28.15
2019-02-14T21:00:46.960Z,32.13
2019-02-14T21:03:21.290Z,31.77
2019-02-14T21:05:54.536Z,33.90
2019-02-14T21:08:27.001Z,35.60
2019-02-14T21:11:00.548Z,32.67
2019-02-14T21:13:33.333Z,38.63
2019-02-14T21:16:07.254Z,33.30
2019-02-14T21:18:40.633Z,35.20
2019-02-14T21:21:13.939Z,33.60
2019-02-14T21:23:47.328Z,33.80
2019-02-14T21:26:20.499Z,30.72
2019-02-14T21:28:54.514Z,32.90
2019-02-14T21:31:27.380Z,39.95
2019-02-14T21:33:59.856Z,37.03
2019-02-14T21:36:32.851Z,38.53
2019-02-14T21:39:05.983Z,41.18
2019-02-14T21:41:38.412Z,39.80
2019-02-14T21:44:11.937Z,37.55
2019-02-14T21:46:45.108Z,36.10
2019-02-14T21:49:18.679Z,40.48
2019-02-14T21:51:51.138Z,43.80
2019-02-14T21:54:24.133Z,46.42
2019-02-14T21:56:58.408Z,48.25
2019-02-14T21:59:33.106Z,53.80
2019-02-14T22:02:06.750Z,61.70
2019-02-14T22:04:39.959Z,61.60
2019-02-14T22:07:13.343Z,62.48
2019-02-14T22:09:46.681Z,64.77
2019-02-14T22:12:38.361Z,59.00
2019-02-14T22:14:54.057Z,66.53
2019-02-14T22:17:27.525Z,65.35
2019-02-14T22:20:00.481Z,66.82
2019-02-14T22:22:34.360Z,68.22
2019-02-14T22:25:07.412Z,66.28
2019-02-14T22:27:40.334Z,60.35
2019-02-14T22:30:14.860Z,60.50
2019-02-14T22:32:48.316Z,55.67
2019-02-14T22:35:22.248Z,57.05
2019-02-14T22:37:55.600Z,61.37
2019-02-14T22:40:28.458Z,54.05
2019-02-14T22:43:01.563Z,53.90
2019-02-14T22:45:35.280Z,55.88
2019-02-14T22:48:09.703Z,52.27
2019-02-14T22:50:42.808Z,55.58
2019-02-14T22:53:17.013Z,57.98
2019-02-14T22:55:51.155Z,63.02
2019-02-14T22:58:24.437Z,58.20
2019-02-14T23:01:03.088Z,59.77
2019-02-14T23:03:37.989Z,60.98
2019-02-14T23:06:11.316Z,55.28
2019-02-14T23:08:45.423Z,61.15
2019-02-14T23:11:19.211Z,59.33
2019-02-14T23:13:53.096Z,57.45
2019-02-14T23:16:26.995Z,52.67
2019-02-14T23:19:01.333Z,55.58
2019-02-14T23:21:35.556Z,55.88
2019-02-14T23:24:10.031Z,58.85
2019-02-14T23:26:43.898Z,61.30
2019-02-14T23:29:18.095Z,56.45
2019-02-14T23:31:51.800Z,58.02
2019-02-14T23:34:24.870Z,62.15
2019-02-14T23:36:59.097Z,66.87
2019-02-14T23:39:32.808Z,62.23
2019-02-14T23:42:06.934Z,68.52
2019-02-14T23:44:40.795Z,73.97
2019-02-14T23:47:15.053Z,62.93
2019-02-14T23:49:49.369Z,71.10
2019-02-14T23:52:23.581Z,74.17
2019-02-14T23:54:57.805Z,79.72
2019-02-14T23:57:32.559Z,75.12
